Time;durP1;ratioP1;P1;durP2;ratioP2;P2;SDS_P1;SDS_P2;PMS_P1;PMS_P2;Temp;Humidity;BMP_temperature;BMP_pressure;BME280_temperature;BME280_humidity;BME280_pressure;Samples;Min_cycle;Max_cycle;Signal;HPM_P1;HPM_P2
2023/04/03 00:02:24;;;;;;;5.27;2.87;;;4.20;88.80;;;;;;6120802;23;20227;-69
2023/04/03 00:04:50;;;;;;;4.10;2.10;;;4.10;90.20;;;;;;6138713;23;20143;-69
2023/04/03 00:07:16;;;;;;;3.27;2.37;;;4.00;90.60;;;;;;6140602;23;20200;-69
2023/04/03 00:09:41;;;;;;;4.30;2.40;;;4.00;90.90;;;;;;6138548;23;20151;-70
2023/04/03 00:12:07;;;;;;;3.90;2.57;;;3.90;91.80;;;;;;6104707;23;20632;-70
2023/04/03 00:14:32;;;;;;;3.80;2.57;;;3.80;92.40;;;;;;6138306;23;20438;-67
2023/04/03 00:16:58;;;;;;;3.97;2.40;;;3.80;93.20;;;;;;6138350;23;20222;-69
2023/04/03 00:19:23;;;;;;;5.00;2.80;;;3.80;92.90;;;;;;6138291;23;20511;-68
2023/04/03 00:21:49;;;;;;;3.10;2.80;;;3.80;93.60;;;;;;6135813;23;20202;-70
2023/04/03 00:24:14;;;;;;;4.07;2.50;;;3.70;93.90;;;;;;6138038;23;20140;-69
2023/04/03 00:26:40;;;;;;;3.43;2.53;;;3.70;94.40;;;;;;6142050;23;20137;-71
2023/04/03 00:29:05;;;;;;;2.90;2.60;;;3.70;94.80;;;;;;6102852;23;20148;-68
2023/04/03 00:31:32;;;;;;;4.00;2.80;;;3.60;95.20;;;;;;6137937;23;20175;-69
2023/04/03 00:33:58;;;;;;;4.40;2.53;;;3.60;95.50;;;;;;6102325;23;20379;-69
2023/04/03 00:36:24;;;;;;;5.63;3.10;;;3.50;95.90;;;;;;6103039;23;20274;-68
2023/04/03 00:38:49;;;;;;;2.67;2.00;;;3.50;96.20;;;;;;6138143;23;20368;-71
2023/04/03 00:41:15;;;;;;;3.53;2.40;;;3.60;95.90;;;;;;6102938;23;20163;-70
2023/04/03 00:43:40;;;;;;;3.03;2.07;;;3.50;96.30;;;;;;6138455;23;20140;-68
2023/04/03 00:46:07;;;;;;;6.80;3.23;;;3.40;96.60;;;;;;6102932;23;20156;-70
2023/04/03 00:48:44;;;;;;;6.33;2.50;;;3.40;97.30;;;;;;6102296;23;20482;-67
2023/04/03 00:51:14;;;;;;;5.00;2.53;;;3.40;97.20;;;;;;6138113;23;20365;-69
2023/04/03 00:53:45;;;;;;;8.20;5.60;;;3.30;97.70;;;;;;6087980;23;1021497;-69
2023/04/03 00:56:14;;;;;;;4.33;2.80;;;3.30;98.30;;;;;;6139644;23;20160;-68
2023/04/03 00:58:47;;;;;;;3.40;3.07;;;3.30;98.00;;;;;;6139772;23;20367;-69
2023/04/03 01:01:19;;;;;;;3.43;2.63;;;3.10;98.20;;;;;;6140211;23;20372;-68
2023/04/03 01:03:44;;;;;;;3.23;2.07;;;3.00;98.90;;;;;;6138713;23;20419;-69
2023/04/03 01:06:11;;;;;;;5.83;2.87;;;3.00;99.20;;;;;;6130190;23;20801;-69
2023/04/03 01:08:37;;;;;;;5.87;3.43;;;3.00;99.30;;;;;;6139598;23;20405;-70
2023/04/03 01:11:03;;;;;;;3.97;3.20;;;3.00;98.70;;;;;;6139521;23;20368;-70
2023/04/03 01:13:31;;;;;;;2.60;2.30;;;3.00;98.30;;;;;;6103685;23;20379;-70
2023/04/03 01:16:00;;;;;;;2.60;1.90;;;3.00;98.10;;;;;;6103690;23;20172;-69
2023/04/03 01:18:26;;;;;;;3.87;2.37;;;3.10;97.00;;;;;;6139194;23;20651;-68
2023/04/03 01:20:55;;;;;;;3.10;1.97;;;3.00;97.00;;;;;;6139481;23;20438;-70
2023/04/03 01:23:35;;;;;;;4.37;1.60;;;3.00;96.60;;;;;;6103740;23;20848;-71
2023/04/03 01:26:02;;;;;;;5.33;2.20;;;2.90;96.60;;;;;;6103589;23;20388;-70
2023/04/03 01:28:31;;;;;;;3.00;2.00;;;2.80;97.00;;;;;;6104012;23;20482;-69
2023/04/03 01:31:26;;;;;;;2.40;2.00;;;2.80;96.80;;;;;;6103573;23;20372;-68
2023/04/03 01:33:54;;;;;;;3.87;2.20;;;2.80;96.90;;;;;;6102848;23;20456;-68
2023/04/03 01:36:29;;;;;;;4.80;2.30;;;2.80;96.40;;;;;;6104393;23;20412;-69
2023/04/03 01:38:56;;;;;;;3.30;2.20;;;2.80;96.40;;;;;;6113254;23;20684;-72
2023/04/03 01:41:22;;;;;;;5.20;2.70;;;2.90;95.50;;;;;;6130034;23;20404;-69
2023/04/03 01:43:50;;;;;;;5.23;2.03;;;3.00;94.80;;;;;;6103719;23;20817;-68
2023/04/03 01:46:16;;;;;;;2.63;2.20;;;3.10;94.70;;;;;;6139203;23;20368;-70
2023/04/03 01:48:43;;;;;;;4.53;1.83;;;3.10;94.60;;;;;;6103684;23;20195;-68
2023/04/03 01:51:10;;;;;;;3.77;2.57;;;3.10;95.30;;;;;;6141051;23;20371;-70
2023/04/03 01:53:35;;;;;;;3.47;2.20;;;3.00;95.80;;;;;;6141155;23;20423;-71
2023/04/03 01:56:01;;;;;;;4.50;2.53;;;3.00;95.90;;;;;;6142457;23;20462;-70
2023/04/03 01:58:27;;;;;;;3.20;2.50;;;3.00;95.80;;;;;;6106960;23;20167;-71
2023/04/03 02:00:54;;;;;;;4.03;2.33;;;3.10;95.70;;;;;;6083517;23;20371;-69
2023/04/03 02:03:20;;;;;;;3.33;2.20;;;3.10;95.50;;;;;;6143129;23;20398;-69
2023/04/03 02:05:45;;;;;;;3.20;2.47;;;3.00;95.60;;;;;;6143905;23;20371;-70
2023/04/03 02:08:11;;;;;;;3.97;2.40;;;2.90;96.10;;;;;;6107290;23;20168;-69
2023/04/03 02:10:37;;;;;;;5.30;2.53;;;2.90;96.20;;;;;;6106699;23;20154;-69
2023/04/03 02:13:02;;;;;;;7.73;2.87;;;2.90;96.50;;;;;;6107284;23;20174;-70
2023/04/03 02:15:28;;;;;;;4.53;2.90;;;2.80;96.90;;;;;;6106895;23;20144;-68
2023/04/03 02:17:54;;;;;;;4.60;2.87;;;2.70;97.30;;;;;;6105359;23;20246;-70
2023/04/03 02:20:21;;;;;;;5.07;3.20;;;2.70;97.90;;;;;;6083697;23;20148;-70
2023/04/03 02:22:47;;;;;;;6.03;2.83;;;2.60;98.30;;;;;;6083186;23;20474;-70
2023/04/03 02:25:12;;;;;;;4.13;2.67;;;2.50;98.70;;;;;;6141665;23;20380;-69
2023/04/03 02:27:38;;;;;;;3.80;2.90;;;2.50;99.20;;;;;;6138565;23;20399;-70
2023/04/03 02:30:05;;;;;;;5.43;2.67;;;2.50;99.50;;;;;;6138833;23;20409;-70
2023/04/03 02:32:31;;;;;;;5.23;3.27;;;2.50;99.30;;;;;;6137812;23;20175;-70
2023/04/03 02:34:57;;;;;;;7.17;3.20;;;2.50;99.50;;;;;;6102835;23;20395;-69
2023/04/03 02:37:23;;;;;;;4.77;2.80;;;2.50;99.40;;;;;;6138500;23;20160;-70
2023/04/03 02:39:50;;;;;;;3.20;2.73;;;2.40;99.70;;;;;;6102944;23;20719;-70
2023/04/03 02:42:16;;;;;;;2.70;2.47;;;2.30;99.90;;;;;;6103053;23;20423;-69
2023/04/03 02:44:41;;;;;;;5.30;3.23;;;2.30;99.90;;;;;;6138795;23;20250;-71
2023/04/03 02:47:08;;;;;;;6.90;3.47;;;2.30;99.90;;;;;;6138331;23;20202;-70
2023/04/03 02:49:34;;;;;;;6.47;3.40;;;2.30;99.90;;;;;;6102591;23;21009;-68
2023/04/03 02:52:00;;;;;;;7.13;3.23;;;2.30;99.90;;;;;;6134647;23;20266;-69
2023/04/03 02:54:28;;;;;;;4.50;3.47;;;2.30;99.90;;;;;;6102491;23;20167;-70
2023/04/03 02:56:55;;;;;;;7.00;3.30;;;2.30;99.90;;;;;;6103638;23;20246;-70
2023/04/03 02:59:20;;;;;;;7.33;3.43;;;2.30;99.90;;;;;;6103962;23;20391;-70
2023/04/03 03:01:46;;;;;;;3.97;3.57;;;2.20;99.90;;;;;;6103380;23;20188;-69
2023/04/03 03:04:12;;;;;;;3.40;2.60;;;2.20;99.90;;;;;;6111658;23;20697;-68
2023/04/03 03:06:38;;;;;;;4.93;3.30;;;2.10;99.90;;;;;;6138899;23;20155;-70
2023/04/03 03:09:04;;;;;;;3.97;3.20;;;2.00;99.90;;;;;;6138746;23;20520;-70
2023/04/03 03:11:30;;;;;;;3.70;3.00;;;2.00;99.90;;;;;;6138471;23;20226;-68
2023/04/03 03:13:55;;;;;;;2.67;2.40;;;2.00;99.90;;;;;;6102809;23;20800;-69
2023/04/03 03:16:24;;;;;;;5.57;2.97;;;1.90;99.90;;;;;;6129042;23;20441;-70
2023/04/03 03:18:49;;;;;;;4.73;2.87;;;1.90;99.90;;;;;;6138124;23;20426;-70
2023/04/03 03:21:15;;;;;;;4.83;3.23;;;2.00;99.90;;;;;;6138892;23;20160;-70
2023/04/03 03:23:41;;;;;;;7.07;2.90;;;2.00;99.90;;;;;;6105841;23;20140;-70
2023/04/03 03:26:09;;;;;;;5.10;2.97;;;2.00;99.90;;;;;;6080344;23;20148;-70
2023/04/03 03:28:36;;;;;;;3.50;3.20;;;2.00;99.90;;;;;;6105617;23;20162;-68
2023/04/03 03:31:02;;;;;;;3.43;3.07;;;2.00;99.90;;;;;;6103633;23;20375;-68
2023/04/03 03:33:29;;;;;;;4.50;3.00;;;2.00;99.90;;;;;;6103694;23;20419;-70
2023/04/03 03:35:55;;;;;;;3.30;2.90;;;2.10;99.90;;;;;;6139980;23;20386;-68
2023/04/03 03:38:21;;;;;;;4.17;3.00;;;2.20;99.90;;;;;;6142903;23;20445;-69
2023/04/03 03:40:48;;;;;;;5.60;3.70;;;2.40;99.90;;;;;;6105101;23;20379;-69
2023/04/03 03:43:14;;;;;;;5.10;2.97;;;2.30;99.90;;;;;;6104612;23;20623;-68
2023/04/03 03:45:40;;;;;;;4.20;2.70;;;2.20;99.90;;;;;;6104122;23;20375;-70
2023/04/03 03:48:05;;;;;;;4.30;2.93;;;2.40;99.90;;;;;;6139787;23;20410;-69
2023/04/03 03:50:31;;;;;;;3.73;2.83;;;2.50;99.90;;;;;;6104925;23;20150;-70
2023/04/03 03:52:57;;;;;;;5.00;3.03;;;2.50;99.70;;;;;;6105912;23;20226;-70
2023/04/03 03:55:23;;;;;;;3.37;2.70;;;2.50;99.90;;;;;;6108652;23;20466;-70
2023/04/03 03:57:53;;;;;;;3.43;2.60;;;2.40;99.90;;;;;;6109644;23;21010;-69
2023/04/03 04:00:20;;;;;;;4.53;2.90;;;2.30;99.90;;;;;;6108600;23;20379;-71
2023/04/03 04:02:51;;;;;;;3.17;2.27;;;2.30;99.90;;;;;;6112372;23;20407;-70
2023/04/03 04:05:22;;;;;;;3.00;2.67;;;2.30;99.90;;;;;;6085282;23;20384;-70
2023/04/03 04:07:48;;;;;;;3.40;2.30;;;2.30;99.90;;;;;;6110188;23;20388;-71
2023/04/03 04:10:14;;;;;;;7.70;2.50;;;2.20;99.90;;;;;;6105080;23;20395;-70
2023/04/03 04:12:41;;;;;;;5.03;2.57;;;2.30;99.90;;;;;;6103753;23;20204;-69
2023/04/03 04:15:08;;;;;;;3.03;2.33;;;2.20;99.90;;;;;;6139466;23;20371;-67
2023/04/03 04:17:35;;;;;;;6.40;2.60;;;2.40;98.90;;;;;;6103847;23;20172;-71
2023/04/03 04:20:02;;;;;;;7.10;2.93;;;2.30;99.50;;;;;;6104904;23;20443;-70
2023/04/03 04:22:29;;;;;;;3.60;2.30;;;2.30;99.40;;;;;;6104806;23;20415;-70
2023/04/03 04:24:54;;;;;;;4.57;2.40;;;2.30;99.00;;;;;;6104005;23;20427;-70
2023/04/03 04:27:20;;;;;;;10.90;3.30;;;2.20;99.50;;;;;;6139637;23;20147;-68
2023/04/03 04:29:45;;;;;;;6.10;2.70;;;2.00;99.90;;;;;;6104443;23;20206;-70
2023/04/03 04:32:11;;;;;;;4.57;2.50;;;1.90;99.90;;;;;;6106581;23;20176;-70
2023/04/03 04:34:37;;;;;;;2.70;2.30;;;1.80;99.90;;;;;;6106794;23;20381;-69
2023/04/03 04:37:03;;;;;;;3.40;2.87;;;1.70;99.90;;;;;;6112163;23;20182;-70
2023/04/03 04:39:29;;;;;;;4.00;2.70;;;1.70;99.90;;;;;;6110325;23;20234;-71
2023/04/03 04:41:57;;;;;;;4.07;2.53;;;1.80;99.90;;;;;;6104294;23;20404;-71
2023/04/03 04:44:25;;;;;;;4.20;2.30;;;1.90;99.90;;;;;;6104346;23;20448;-70
2023/04/03 04:46:51;;;;;;;2.93;2.37;;;2.10;99.90;;;;;;6106526;23;20390;-71
2023/04/03 04:49:17;;;;;;;2.97;2.20;;;1.90;99.90;;;;;;6148908;23;20198;-70
2023/04/03 04:51:43;;;;;;;4.73;2.60;;;2.00;99.90;;;;;;6110896;23;20447;-70
2023/04/03 04:54:09;;;;;;;4.90;3.07;;;2.00;99.70;;;;;;6116511;23;20725;-68
2023/04/03 04:56:36;;;;;;;6.73;2.07;;;1.90;99.90;;;;;;6111616;23;20415;-71
2023/04/03 04:59:01;;;;;;;7.77;3.00;;;1.70;99.90;;;;;;6151306;23;20371;-70
2023/04/03 05:01:27;;;;;;;3.77;2.13;;;1.70;99.90;;;;;;6114371;23;20203;-70
2023/04/03 05:04:02;;;;;;;5.40;1.60;;;1.60;99.90;;;;;;6115162;23;20557;-71
2023/04/03 05:06:29;;;;;;;7.37;2.90;;;1.60;99.90;;;;;;6125382;23;20383;-71
2023/04/03 05:08:56;;;;;;;8.20;2.80;;;1.70;99.90;;;;;;6114621;23;20417;-71
2023/04/03 05:11:23;;;;;;;6.27;2.10;;;1.70;99.90;;;;;;6152710;23;20404;-72
2023/04/03 05:13:50;;;;;;;3.33;1.90;;;1.70;99.90;;;;;;6152184;23;20375;-72
2023/04/03 05:16:16;;;;;;;4.90;2.20;;;1.80;99.90;;;;;;6119927;23;20454;-70
2023/04/03 05:18:42;;;;;;;3.67;2.57;;;1.80;99.90;;;;;;6097448;23;20380;-71
2023/04/03 05:21:15;;;;;;;4.90;2.20;;;1.80;99.90;;;;;;6098524;23;20403;-74
2023/04/03 05:23:41;;;;;;;3.73;1.77;;;1.80;99.90;;;;;;6120346;23;20631;-73
2023/04/03 05:26:08;;;;;;;2.83;1.63;;;1.80;99.90;;;;;;6118933;23;20384;-73
2023/04/03 05:28:35;;;;;;;4.40;1.90;;;1.90;99.90;;;;;;6096478;23;20447;-72
2023/04/03 05:31:01;;;;;;;2.33;1.47;;;1.90;99.90;;;;;;6119562;23;20387;-72
2023/04/03 05:33:32;;;;;;;3.90;2.37;;;1.80;99.90;;;;;;6093792;23;20379;-72
2023/04/03 05:36:06;;;;;;;4.40;2.00;;;1.80;99.90;;;;;;6127503;23;20367;-73
2023/04/03 05:38:35;;;;;;;3.33;2.07;;;1.90;99.90;;;;;;6093324;23;20412;-73
2023/04/03 05:41:01;;;;;;;2.60;2.07;;;1.90;99.90;;;;;;6154609;23;20411;-73
2023/04/03 05:43:27;;;;;;;5.43;2.20;;;1.90;99.90;;;;;;6096049;23;20199;-73
2023/04/03 05:45:54;;;;;;;4.07;1.83;;;2.10;99.80;;;;;;6073187;23;20160;-73
2023/04/03 05:48:22;;;;;;;4.50;2.13;;;2.30;98.70;;;;;;6052052;23;20380;-73
2023/04/03 05:50:48;;;;;;;3.30;1.77;;;2.30;98.50;;;;;;6096007;23;20411;-72
2023/04/03 05:53:27;;;;;;;4.13;1.90;;;2.40;98.30;;;;;;6094087;23;20442;-73
2023/04/03 05:55:54;;;;;;;2.80;2.00;;;2.30;98.00;;;;;;6095024;23;20375;-72
2023/04/03 05:58:21;;;;;;;3.53;1.97;;;2.40;97.60;;;;;;6118909;23;20380;-73
2023/04/03 06:00:48;;;;;;;6.30;1.63;;;2.40;98.10;;;;;;6119633;23;20372;-74
2023/04/03 06:03:15;;;;;;;3.27;1.70;;;2.40;98.20;;;;;;6115838;23;20407;-72
2023/04/03 06:05:42;;;;;;;3.80;2.10;;;2.50;97.40;;;;;;6115756;23;20398;-74
2023/04/03 06:08:10;;;;;;;2.73;1.60;;;2.50;96.80;;;;;;6095202;23;20395;-73
2023/04/03 06:10:36;;;;;;;2.93;1.70;;;2.70;96.70;;;;;;6095424;23;20396;-74
2023/04/03 06:13:02;;;;;;;3.40;2.00;;;2.80;96.50;;;;;;6117949;23;20434;-73
2023/04/03 06:15:28;;;;;;;5.73;2.07;;;2.90;94.50;;;;;;6068410;23;20383;-71
2023/04/03 06:17:54;;;;;;;3.90;1.50;;;3.10;94.10;;;;;;6116574;23;20540;-74
2023/04/03 06:20:22;;;;;;;7.20;3.13;;;3.00;93.80;;;;;;6152468;23;20128;-74
2023/04/03 06:22:48;;;;;;;5.37;2.10;;;3.20;93.20;;;;;;6118101;23;20415;-73
2023/04/03 06:25:14;;;;;;;1.97;1.77;;;3.20;93.70;;;;;;6119721;23;20439;-73
2023/04/03 06:27:40;;;;;;;6.80;2.07;;;3.20;93.10;;;;;;6151140;23;20380;-73
2023/04/03 06:30:07;;;;;;;3.57;2.20;;;3.40;91.90;;;;;;6124591;23;20437;-72
2023/04/03 06:32:33;;;;;;;3.60;1.90;;;3.50;91.60;;;;;;6115634;23;20407;-73
2023/04/03 06:35:00;;;;;;;6.90;2.23;;;3.50;91.90;;;;;;6125779;23;20407;-73
2023/04/03 06:37:25;;;;;;;8.70;2.47;;;3.60;90.30;;;;;;6124560;23;20403;-74
2023/04/03 06:39:52;;;;;;;5.07;2.07;;;3.60;89.60;;;;;;6116249;23;20439;-73
2023/04/03 06:42:17;;;;;;;2.13;1.73;;;3.70;88.10;;;;;;6095609;23;20995;-72
2023/04/03 06:44:53;;;;;;;4.20;1.77;;;3.60;89.70;;;;;;6131925;23;20364;-72
2023/04/03 06:47:19;;;;;;;3.50;2.23;;;3.50;90.10;;;;;;6118834;23;20387;-73
2023/04/03 06:49:44;;;;;;;3.93;2.20;;;3.50;90.20;;;;;;6153217;23;20140;-72
2023/04/03 06:52:11;;;;;;;5.10;1.83;;;3.60;89.90;;;;;;6121477;23;20251;-73
2023/04/03 06:54:40;;;;;;;4.23;2.07;;;3.60;88.40;;;;;;6091498;23;20160;-74
2023/04/03 06:57:09;;;;;;;3.30;1.93;;;3.60;87.20;;;;;;6115346;23;20415;-73
2023/04/03 06:59:36;;;;;;;5.13;2.50;;;3.60;87.40;;;;;;6112508;23;20440;-74
2023/04/03 07:02:02;;;;;;;4.27;1.87;;;3.70;84.60;;;;;;6121134;23;20447;-72
2023/04/03 07:04:27;;;;;;;4.67;1.63;;;3.80;84.50;;;;;;6110738;23;20385;-73
2023/04/03 07:06:53;;;;;;;2.70;1.63;;;3.70;85.20;;;;;;6119655;23;20599;-73
2023/04/03 07:09:19;;;;;;;4.20;1.77;;;3.90;83.00;;;;;;6088042;23;20180;-74
2023/04/03 07:11:44;;;;;;;4.23;1.90;;;4.00;80.40;;;;;;6112893;23;20192;-72
2023/04/03 07:14:10;;;;;;;6.90;2.00;;;4.10;79.10;;;;;;6062171;23;20144;-73
2023/04/03 07:16:36;;;;;;;7.67;3.17;;;4.10;78.60;;;;;;6124387;23;20468;-71
2023/04/03 07:19:02;;;;;;;4.63;2.00;;;4.20;75.20;;;;;;6121795;23;20399;-73
2023/04/03 07:21:28;;;;;;;6.33;2.23;;;4.20;75.40;;;;;;6111350;23;20164;-75
2023/04/03 07:23:55;;;;;;;5.30;2.20;;;4.30;75.60;;;;;;6088759;23;20388;-72
2023/04/03 07:26:22;;;;;;;6.30;1.97;;;4.20;75.50;;;;;;6124723;23;20377;-74
2023/04/03 07:28:48;;;;;;;3.90;2.10;;;4.30;75.10;;;;;;6089054;23;20428;-75
2023/04/03 07:31:15;;;;;;;3.80;2.13;;;4.40;72.50;;;;;;6125864;23;20369;-73
2023/04/03 07:33:42;;;;;;;3.67;1.50;;;4.50;71.60;;;;;;6112815;23;20428;-74
2023/04/03 07:36:09;;;;;;;5.33;1.83;;;4.50;71.80;;;;;;6115645;23;20464;-72
2023/04/03 07:38:36;;;;;;;5.07;1.93;;;4.60;69.80;;;;;;6114146;23;20654;-74
2023/04/03 07:41:02;;;;;;;3.87;1.80;;;4.70;71.20;;;;;;6122724;23;20369;-74
2023/04/03 07:43:28;;;;;;;4.23;1.70;;;4.70;66.60;;;;;;6124984;23;20372;-75
2023/04/03 07:45:55;;;;;;;2.97;1.87;;;4.80;67.30;;;;;;6111622;23;20441;-74
2023/04/03 07:48:23;;;;;;;7.20;1.83;;;4.80;64.70;;;;;;6111390;23;20380;-73
2023/04/03 07:50:48;;;;;;;2.13;1.40;;;4.90;64.20;;;;;;6123209;23;20133;-76
2023/04/03 07:53:15;;;;;;;5.43;1.93;;;4.90;64.00;;;;;;6146703;23;20505;-74
2023/04/03 07:55:45;;;;;;;4.67;1.80;;;4.80;64.70;;;;;;6118186;23;20144;-75
2023/04/03 07:58:14;;;;;;;3.10;1.70;;;4.80;65.20;;;;;;6128712;23;20375;-73
2023/04/03 08:00:41;;;;;;;2.90;1.47;;;4.90;66.50;;;;;;6121160;23;20380;-73
2023/04/03 08:03:09;;;;;;;3.97;1.90;;;4.90;63.80;;;;;;6094576;23;20487;-75
2023/04/03 08:05:38;;;;;;;4.90;1.67;;;5.00;62.90;;;;;;6071509;23;20383;-74
2023/04/03 08:08:05;;;;;;;5.33;2.10;;;5.00;63.10;;;;;;6095825;23;20372;-74
2023/04/03 08:10:31;;;;;;;3.57;1.60;;;5.10;63.00;;;;;;6098211;23;20394;-75
2023/04/03 08:12:58;;;;;;;3.70;1.93;;;5.20;63.50;;;;;;6121152;23;20431;-74
2023/04/03 08:15:24;;;;;;;4.87;1.67;;;5.20;61.40;;;;;;6121668;23;20387;-75
2023/04/03 08:17:50;;;;;;;2.90;1.70;;;5.20;61.80;;;;;;6122650;23;20176;-73
2023/04/03 08:20:16;;;;;;;9.97;2.20;;;5.30;62.20;;;;;;6099719;23;20437;-74
2023/04/03 08:22:42;;;;;;;3.67;1.50;;;5.40;61.50;;;;;;6156004;23;20532;-73
2023/04/03 08:25:08;;;;;;;8.00;1.80;;;5.40;60.90;;;;;;6096070;23;20376;-74
2023/04/03 08:27:34;;;;;;;5.20;1.53;;;5.50;60.80;;;;;;6133344;23;20136;-75
2023/04/03 08:30:00;;;;;;;3.60;1.47;;;5.60;59.30;;;;;;6159661;23;20382;-74
2023/04/03 08:32:26;;;;;;;3.17;1.30;;;5.60;58.20;;;;;;6098870;23;20471;-75
2023/04/03 08:34:55;;;;;;;3.83;1.57;;;5.70;56.70;;;;;;6097943;23;20375;-75
2023/04/03 08:37:21;;;;;;;5.87;1.70;;;5.80;55.60;;;;;;6121894;23;20418;-74
2023/04/03 08:39:48;;;;;;;4.17;1.60;;;5.90;54.80;;;;;;6099192;23;20286;-74
2023/04/03 08:42:40;;;;;;;5.77;1.97;;;5.90;54.10;;;;;;6092119;23;20714;-74
2023/04/03 08:45:28;;;;;;;6.70;1.70;;;5.90;53.70;;;;;;6069952;23;20446;-75
2023/04/03 08:48:21;;;;;;;4.60;1.30;;;5.90;53.40;;;;;;6096501;23;20400;-75
2023/04/03 08:50:56;;;;;;;1.80;1.10;;;6.00;51.80;;;;;;6006977;24;20380;-75
2023/04/03 08:53:28;;;;;;;2.43;1.60;;;6.00;51.60;;;;;;6107663;23;20452;-76
2023/04/03 08:55:55;;;;;;;3.97;1.63;;;6.10;51.60;;;;;;6093939;23;20393;-74
2023/04/03 08:58:38;;;;;;;4.07;0.90;;;6.10;51.00;;;;;;6121589;23;20444;-74
2023/04/03 09:01:25;;;;;;;3.10;1.13;;;6.10;50.80;;;;;;6094233;23;20373;-76
2023/04/03 09:03:56;;;;;;;2.40;1.40;;;6.10;51.30;;;;;;6141636;23;20463;-75
2023/04/03 09:06:36;;;;;;;3.70;1.20;;;6.20;51.20;;;;;;6095187;23;20440;-76
2023/04/03 09:09:16;;;;;;;6.47;1.90;;;6.30;50.90;;;;;;6094700;23;20384;-73
2023/04/03 09:12:17;;;;;;;4.77;1.57;;;6.30;50.10;;;;;;6089309;23;20440;-76
2023/04/03 09:15:25;;;;;;;3.03;1.60;;;6.50;50.00;;;;;;6072292;23;20376;-75
2023/04/03 09:18:06;;;;;;;3.93;1.30;;;6.50;50.30;;;;;;6098192;23;20436;-76
2023/04/03 09:20:59;;;;;;;2.83;1.30;;;6.70;49.60;;;;;;6095480;23;20475;-76
2023/04/03 09:23:44;;;;;;;3.17;1.60;;;6.70;48.60;;;;;;6065211;23;20397;-76
2023/04/03 09:26:33;;;;;;;2.53;1.30;;;6.70;48.30;;;;;;6065100;23;20811;-75
2023/04/03 09:29:06;;;;;;;1.90;1.10;;;6.70;48.80;;;;;;6067809;23;20390;-76
2023/04/03 09:31:45;;;;;;;3.33;1.40;;;6.70;49.10;;;;;;6067405;23;20448;-75
2023/04/03 09:34:37;;;;;;;3.90;1.77;;;6.90;48.90;;;;;;6041856;23;20377;-75
2023/04/03 09:37:06;;;;;;;4.70;1.67;;;7.10;48.50;;;;;;6065960;23;20429;-75
2023/04/03 09:39:54;;;;;;;4.10;1.40;;;7.00;47.80;;;;;;6065992;23;20378;-75
2023/04/03 09:42:25;;;;;;;2.57;1.20;;;7.00;47.10;;;;;;6063332;23;20451;-75
2023/04/03 09:44:59;;;;;;;1.83;1.20;;;6.90;46.90;;;;;;6070339;23;20486;-75
2023/04/03 09:47:32;;;;;;;1.60;1.00;;;7.00;46.40;;;;;;6069544;23;20384;-75
2023/04/03 09:50:14;;;;;;;2.20;0.90;;;7.10;45.90;;;;;;6093230;23;20376;-76
2023/04/03 09:52:51;;;;;;;3.63;2.20;;;7.20;45.90;;;;;;6119966;23;20408;-75
2023/04/03 09:55:29;;;;;;;3.50;1.53;;;7.10;45.60;;;;;;6095718;23;20372;-76
2023/04/03 09:58:20;;;;;;;3.43;1.47;;;7.20;44.00;;;;;;6069976;23;20448;-75
2023/04/03 10:00:56;;;;;;;6.80;1.57;;;7.30;41.90;;;;;;6095690;23;20455;-75
2023/04/03 10:03:29;;;;;;;7.73;1.20;;;7.50;41.90;;;;;;6094784;23;20380;-76
2023/04/03 10:05:59;;;;;;;4.20;1.47;;;7.50;41.40;;;;;;6118928;23;20372;-76
2023/04/03 10:08:35;;;;;;;3.90;1.23;;;7.40;42.10;;;;;;6074087;23;20416;-76
2023/04/03 10:11:27;;;;;;;2.97;1.57;;;7.50;41.10;;;;;;6108849;23;20392;-75
2023/04/03 10:14:01;;;;;;;4.90;1.20;;;7.50;40.80;;;;;;6095244;23;20400;-75
2023/04/03 10:16:49;;;;;;;4.23;1.40;;;7.60;40.20;;;;;;6097776;23;20416;-76
2023/04/03 10:19:29;;;;;;;4.50;1.00;;;7.60;40.00;;;;;;6049675;23;20404;-76
2023/04/03 10:25:54;;;;;;;2.60;1.10;;;7.70;40.10;;;;;;6121206;23;20455;-75
2023/04/03 10:28:46;;;;;;;2.20;1.30;;;7.80;39.30;;;;;;6094721;23;20415;-76
2023/04/03 10:31:31;;;;;;;1.40;0.90;;;7.80;38.60;;;;;;6100455;23;20376;-76
2023/04/03 10:34:32;;;;;;;2.80;1.10;;;7.90;38.20;;;;;;6152548;23;20388;-74
2023/04/03 10:37:58;;;;;;;3.27;1.17;;;7.80;38.10;;;;;;6124510;23;20443;-75
2023/04/03 10:40:45;;;;;;;4.43;1.67;;;7.90;38.40;;;;;;6033222;23;20383;-75
2023/04/03 10:43:49;;;;;;;2.30;1.13;;;7.90;38.00;;;;;;6031441;23;20415;-76
2023/04/03 10:46:43;;;;;;;2.20;1.03;;;7.90;37.70;;;;;;5963956;23;20468;-75
2023/04/03 10:49:36;;;;;;;5.90;1.50;;;8.00;36.10;;;;;;6021228;23;20403;-75
2023/04/03 10:52:18;;;;;;;3.40;1.40;;;8.10;36.40;;;;;;5985197;23;20406;-75
2023/04/03 10:55:13;;;;;;;3.37;1.23;;;8.30;35.50;;;;;;6008517;23;20491;-75
2023/04/03 10:57:42;;;;;;;2.67;1.10;;;8.40;35.80;;;;;;5986436;23;20437;-76
2023/04/03 11:00:20;;;;;;;1.63;1.03;;;8.30;34.90;;;;;;6010460;23;20495;-76
2023/04/03 11:03:00;;;;;;;2.43;1.10;;;8.30;33.90;;;;;;5983726;23;20429;-75
2023/04/03 11:05:49;;;;;;;2.23;1.43;;;8.30;34.80;;;;;;6007316;23;20411;-74
2023/04/03 11:08:30;;;;;;;2.13;1.40;;;8.30;34.10;;;;;;6006016;23;20662;-74
2023/04/03 11:11:00;;;;;;;2.73;1.60;;;8.30;34.20;;;;;;6071574;23;20386;-74
2023/04/03 11:13:38;;;;;;;5.30;1.03;;;8.30;34.20;;;;;;6100211;23;20411;-76
2023/04/03 11:16:17;;;;;;;3.00;1.10;;;8.30;34.40;;;;;;6102467;23;20383;-75
2023/04/03 11:19:01;;;;;;;5.27;1.20;;;8.40;35.30;;;;;;6127410;23;20395;-75
2023/04/03 11:24:08;;;;;;;7.20;1.30;;;8.50;36.10;;;;;;6116213;23;20446;-75
2023/04/03 11:26:40;;;;;;;3.13;1.57;;;8.60;35.70;;;;;;6130592;23;20389;-76
2023/04/03 11:29:12;;;;;;;3.50;1.47;;;8.80;35.50;;;;;;6069979;23;20547;-75
2023/04/03 11:32:20;;;;;;;1.90;1.20;;;8.80;35.60;;;;;;6120682;23;20415;-76
2023/04/03 11:35:00;;;;;;;3.33;1.17;;;8.80;35.10;;;;;;6118038;23;20412;-76
2023/04/03 11:37:52;;;;;;;4.10;1.30;;;8.80;34.80;;;;;;6050748;23;20471;-75
2023/04/03 11:40:35;;;;;;;3.10;1.70;;;8.80;34.80;;;;;;6094443;23;20408;-75
2023/04/03 11:43:23;;;;;;;2.30;1.27;;;8.80;34.60;;;;;;6082606;23;20475;-74
2023/04/03 11:46:09;;;;;;;5.47;1.57;;;8.90;33.10;;;;;;6054947;23;20411;-75
2023/04/03 11:48:35;;;;;;;2.60;1.40;;;9.00;32.70;;;;;;6096493;23;20396;-75
2023/04/03 11:51:27;;;;;;;3.67;1.30;;;8.90;33.00;;;;;;6119444;23;20435;-76
2023/04/03 11:54:34;;;;;;;6.73;1.20;;;8.90;33.10;;;;;;6083914;23;20510;-75
2023/04/03 11:57:23;;;;;;;2.30;1.33;;;8.80;33.40;;;;;;6090548;23;20539;-75
2023/04/03 11:59:55;;;;;;;3.00;1.07;;;8.70;34.20;;;;;;6064064;23;20372;-75
2023/04/03 12:02:44;;;;;;;2.50;0.93;;;8.90;34.40;;;;;;6068294;23;20385;-75
2023/04/03 12:05:30;;;;;;;3.10;1.00;;;8.70;34.00;;;;;;6143302;23;20430;-76
2023/04/03 12:08:30;;;;;;;2.13;0.97;;;8.80;33.30;;;;;;6101644;23;20383;-74
2023/04/03 12:11:08;;;;;;;1.87;1.00;;;8.80;33.30;;;;;;6082455;23;20383;-77
2023/04/03 12:13:55;;;;;;;2.70;1.00;;;8.90;34.00;;;;;;6127594;23;20374;-76
2023/04/03 12:16:26;;;;;;;3.93;1.20;;;9.00;34.20;;;;;;6136287;23;20553;-75
2023/04/03 12:18:55;;;;;;;2.17;0.90;;;9.10;32.00;;;;;;6137350;23;20431;-74
2023/04/03 12:21:27;;;;;;;3.20;1.10;;;9.00;32.20;;;;;;6102840;23;20403;-76
2023/04/03 12:24:29;;;;;;;6.90;1.10;;;9.00;31.90;;;;;;6101273;23;20383;-75
2023/04/03 12:26:58;;;;;;;2.00;1.13;;;9.20;32.20;;;;;;6005045;24;20493;-76
2023/04/03 12:29:40;;;;;;;2.13;0.97;;;9.20;32.20;;;;;;6004515;24;20379;-76
2023/04/03 12:32:49;;;;;;;4.07;1.30;;;9.20;32.00;;;;;;5959153;23;20395;-76
2023/04/03 12:35:42;;;;;;;4.60;1.20;;;9.20;32.00;;;;;;5982556;24;20444;-75
2023/04/03 12:38:20;;;;;;;1.50;1.20;;;9.20;32.00;;;;;;5982810;24;20426;-76
2023/04/03 12:41:30;;;;;;;3.43;1.07;;;9.10;32.50;;;;;;5984129;23;20368;-75
2023/04/03 12:44:31;;;;;;;4.13;1.00;;;9.10;32.40;;;;;;5902219;24;20383;-76
2023/04/03 12:47:01;;;;;;;1.77;1.00;;;9.10;33.40;;;;;;5934029;24;20367;-76
2023/04/03 12:49:44;;;;;;;1.93;1.10;;;9.30;34.00;;;;;;5919608;24;20414;-76
2023/04/03 12:52:41;;;;;;;2.87;1.10;;;9.30;34.10;;;;;;5898407;24;20427;-74
2023/04/03 12:55:18;;;;;;;4.17;1.13;;;9.30;34.00;;;;;;5870720;24;20392;-75
2023/04/03 12:57:45;;;;;;;3.70;1.47;;;9.50;34.20;;;;;;5872122;24;20431;-75
2023/04/03 13:00:34;;;;;;;1.87;1.07;;;9.60;34.40;;;;;;5896546;24;20437;-76
2023/04/03 13:03:03;;;;;;;5.30;3.30;;;9.70;33.30;;;;;;5976869;24;20408;-76
2023/04/03 13:05:32;;;;;;;2.97;1.13;;;9.60;33.00;;;;;;5991596;23;20431;-76
2023/04/03 13:08:09;;;;;;;3.13;1.10;;;9.60;32.80;;;;;;6016671;23;20376;-76
2023/04/03 13:11:05;;;;;;;2.33;1.20;;;9.60;32.10;;;;;;6003943;24;20395;-75
2023/04/03 13:13:32;;;;;;;1.73;0.93;;;9.70;30.90;;;;;;5983385;24;20467;-76
2023/04/03 13:15:58;;;;;;;1.93;1.23;;;9.60;30.70;;;;;;5983955;24;20408;-75
2023/04/03 13:18:37;;;;;;;2.80;1.60;;;9.60;31.20;;;;;;6006026;24;20372;-75
2023/04/03 13:21:11;;;;;;;8.43;1.23;;;9.50;31.60;;;;;;6035149;23;20393;-75
2023/04/03 13:23:50;;;;;;;2.27;1.00;;;9.50;31.50;;;;;;6034285;23;20980;-75
2023/04/03 13:26:30;;;;;;;2.47;1.20;;;9.30;32.00;;;;;;6034039;23;20375;-76
2023/04/03 13:29:27;;;;;;;1.90;1.10;;;9.50;31.50;;;;;;6041606;23;20394;-75
2023/04/03 13:31:55;;;;;;;2.00;1.10;;;9.60;31.00;;;;;;6033517;23;20638;-76